Time;durP1;ratioP1;P1;durP2;ratioP2;P2;SDS_P1;SDS_P2;PMS_P1;PMS_P2;Temp;Humidity;BMP_temperature;BMP_pressure;BME280_temperature;BME280_humidity;BME280_pressure;Samples;Min_cycle;Max_cycle;Signal;HPM_P1;HPM_P2
2023/04/25 00:04:57;;;;;;;3.50;1.33;;;12.90;99.90;;;11.62;78.39;99035.44;10380769;28;97480;-82
2023/04/25 00:10:02;;;;;;;2.57;1.23;;;12.90;99.90;;;11.60;77.82;99025.00;10382362;28;96830;-83
2023/04/25 00:15:07;;;;;;;2.20;0.90;;;12.90;99.90;;;11.60;77.13;99029.50;10394105;28;96511;-81
2023/04/25 00:20:11;;;;;;;1.47;0.90;;;12.90;99.90;;;11.56;76.24;99023.75;10389977;28;96561;-83
2023/04/25 00:25:14;;;;;;;1.90;1.20;;;12.80;99.90;;;11.49;76.28;99013.13;10380770;28;98293;-82
2023/04/25 00:30:17;;;;;;;1.70;1.37;;;12.80;99.90;;;11.45;76.25;99011.88;10365151;28;97430;-84
2023/04/25 00:35:21;;;;;;;2.67;1.57;;;12.70;99.90;;;11.38;76.41;99011.06;10413048;27;96667;-82
2023/04/25 00:40:24;;;;;;;1.90;1.60;;;12.70;99.90;;;11.35;77.00;99002.69;10381847;28;96625;-83
2023/04/25 00:45:29;;;;;;;1.33;0.97;;;12.60;99.90;;;11.33;76.69;98994.88;10379947;28;96598;-85
2023/04/25 00:50:34;;;;;;;3.17;1.40;;;12.60;99.90;;;11.34;76.76;99001.03;10396076;28;96649;-81
2023/04/25 00:55:37;;;;;;;3.40;1.90;;;12.60;99.90;;;11.30;77.48;98978.53;10396162;27;96605;-85
2023/04/25 01:00:41;;;;;;;3.87;2.00;;;12.60;99.90;;;11.26;77.68;98978.09;10375090;28;96740;-82
2023/04/25 01:05:45;;;;;;;5.47;2.10;;;12.60;99.90;;;11.27;77.80;98987.69;10379791;28;96546;-85
2023/04/25 01:10:48;;;;;;;5.00;2.53;;;12.50;99.90;;;11.26;77.53;98988.72;10380995;28;96742;-83
2023/04/25 01:15:51;;;;;;;3.53;2.30;;;12.50;99.90;;;11.22;77.11;98987.50;10412361;28;96978;-86
2023/04/25 01:20:55;;;;;;;3.07;2.10;;;12.50;99.90;;;11.18;77.29;98987.09;10398851;27;97367;-84
2023/04/25 01:25:58;;;;;;;3.33;2.37;;;12.50;99.90;;;11.11;77.83;98990.75;10398988;28;96745;-83
2023/04/25 01:31:02;;;;;;;2.83;2.03;;;12.40;99.90;;;11.08;78.17;98993.81;10373682;28;97882;-83
2023/04/25 01:36:06;;;;;;;4.13;2.57;;;12.40;99.90;;;11.04;78.68;98981.94;10379260;28;96513;-84
2023/04/25 01:41:09;;;;;;;4.07;2.77;;;12.30;99.90;;;10.98;78.93;98984.38;10380575;28;96489;-84
2023/04/25 01:46:12;;;;;;;3.63;2.70;;;12.30;99.90;;;10.92;79.25;98966.56;10376148;27;98628;-84
2023/04/25 01:51:16;;;;;;;2.87;1.90;;;12.20;99.90;;;10.92;79.17;98958.59;10386677;28;96855;-84
2023/04/25 01:56:19;;;;;;;4.20;2.60;;;12.20;99.90;;;10.91;78.66;98951.63;10377290;28;96521;-82
2023/04/25 02:01:22;;;;;;;2.83;1.80;;;12.20;99.90;;;10.96;76.74;98935.91;10395573;28;96916;-83
2023/04/25 02:06:25;;;;;;;2.23;1.73;;;12.20;99.90;;;11.00;75.01;98941.66;10386196;28;96651;-87
2023/04/25 02:11:28;;;;;;;2.97;1.87;;;12.30;99.90;;;11.07;74.58;98939.81;10387769;28;96604;-85
2023/04/25 02:16:32;;;;;;;4.13;1.80;;;12.30;99.90;;;11.08;74.71;98945.94;10418441;28;97964;-88
2023/04/25 02:21:35;;;;;;;5.30;3.53;;;12.30;99.90;;;11.08;75.14;98949.41;10402420;28;97376;-82
2023/04/25 02:26:38;;;;;;;3.87;2.13;;;12.30;99.90;;;11.04;74.97;98926.13;10398243;28;96878;-83
2023/04/25 02:31:42;;;;;;;3.30;1.83;;;12.30;99.90;;;11.03;73.19;98953.69;10382628;28;96680;-84
2023/04/25 02:36:45;;;;;;;3.17;1.50;;;12.30;99.90;;;11.04;71.64;98931.44;10387231;28;96610;-85
2023/04/25 02:41:48;;;;;;;2.07;1.40;;;12.30;99.30;;;11.05;69.17;98931.22;10378929;28;96654;-85
2023/04/25 02:46:51;;;;;;;2.73;1.40;;;12.30;97.90;;;11.07;69.30;98939.00;10365730;28;97647;-87
2023/04/25 02:51:54;;;;;;;2.30;1.60;;;12.40;97.60;;;11.09;69.72;98932.44;10400899;28;97516;-83
2023/04/25 02:56:57;;;;;;;3.53;1.73;;;12.40;97.90;;;11.09;70.16;98942.25;10400892;28;96574;-83
2023/04/25 03:02:01;;;;;;;3.33;1.70;;;12.40;97.90;;;11.05;70.43;98930.41;10397733;27;98836;-82
2023/04/25 03:07:04;;;;;;;2.50;1.80;;;12.30;98.10;;;11.03;71.50;98935.91;10369045;28;96669;-86
2023/04/25 03:12:07;;;;;;;3.53;2.00;;;12.30;98.50;;;10.95;72.41;98947.56;10384916;28;96589;-85
2023/04/25 03:17:10;;;;;;;3.97;2.10;;;12.30;99.00;;;10.88;73.33;98954.69;10397576;28;97107;-82
2023/04/25 03:22:13;;;;;;;3.57;2.40;;;12.20;99.30;;;10.82;73.48;98954.69;10417995;28;96535;-86
2023/04/25 03:27:17;;;;;;;2.97;1.80;;;12.10;99.40;;;10.77;73.68;98959.78;10385856;28;96489;-89
2023/04/25 03:32:20;;;;;;;2.63;1.50;;;12.10;99.60;;;10.73;73.00;98964.66;10395434;28;97031;-84
2023/04/25 03:37:24;;;;;;;3.00;2.00;;;12.00;99.40;;;10.69;73.77;98966.91;10399391;28;96515;-85
2023/04/25 03:42:27;;;;;;;2.47;1.47;;;12.00;99.60;;;10.63;73.72;98966.88;10382185;28;96603;-84
2023/04/25 03:47:30;;;;;;;2.20;1.60;;;12.00;99.70;;;10.58;74.01;98970.13;10394856;28;96556;-81
2023/04/25 03:52:33;;;;;;;5.13;1.60;;;11.90;99.80;;;10.53;74.24;98961.09;10397029;28;96695;-83
2023/04/25 03:57:36;;;;;;;4.37;1.70;;;11.90;99.80;;;10.45;73.63;98962.91;10409229;28;96520;-82
2023/04/25 04:02:39;;;;;;;2.53;1.30;;;11.80;99.50;;;10.42;74.18;98968.59;10397767;28;98093;-84
2023/04/25 04:07:44;;;;;;;3.30;1.57;;;11.80;99.80;;;10.31;74.62;98961.19;10381485;28;96614;-83
2023/04/25 04:12:47;;;;;;;1.60;1.20;;;11.70;99.90;;;10.28;75.43;98972.22;10392715;28;96847;-83
2023/04/25 04:17:51;;;;;;;3.23;1.60;;;11.60;99.90;;;10.20;76.43;98972.34;10393955;28;98801;-83
2023/04/25 04:22:54;;;;;;;4.10;1.70;;;11.60;99.90;;;10.14;77.78;98978.44;10415138;28;97358;-85
2023/04/25 04:27:58;;;;;;;2.57;1.80;;;11.50;99.90;;;10.04;79.16;98976.13;10393243;28;97357;-87
2023/04/25 04:33:03;;;;;;;3.70;2.20;;;11.40;99.90;;;9.99;79.48;98980.38;10377804;28;97835;-88
2023/04/25 04:38:06;;;;;;;3.30;2.13;;;11.40;99.90;;;9.88;80.78;98971.09;10413946;28;98422;-88
2023/04/25 04:43:10;;;;;;;2.50;1.90;;;11.30;99.90;;;9.79;81.05;98973.09;10397061;28;96529;-89
2023/04/25 04:48:13;;;;;;;2.97;2.10;;;11.20;99.90;;;9.74;81.78;98974.69;10395203;28;97190;-88
2023/04/25 04:53:16;;;;;;;3.17;2.10;;;11.10;99.90;;;9.70;82.75;98974.22;10396183;28;96735;-88
2023/04/25 04:58:20;;;;;;;2.30;1.67;;;11.10;99.90;;;9.66;82.87;98978.31;10386340;27;97813;-85
2023/04/25 05:03:23;;;;;;;3.67;1.40;;;11.10;99.90;;;9.63;83.71;98982.13;10375632;28;96555;-85
2023/04/25 05:08:26;;;;;;;3.20;1.50;;;11.00;99.90;;;9.57;84.38;98988.19;10410271;27;98335;-88
2023/04/25 05:13:29;;;;;;;3.70;1.97;;;11.00;99.90;;;9.54;85.09;98983.28;10390592;28;96722;-89
2023/04/25 05:18:32;;;;;;;1.70;1.20;;;10.90;99.90;;;9.51;85.48;99001.41;10388564;28;97808;-90
2023/04/25 05:23:35;;;;;;;3.00;1.40;;;10.90;99.90;;;9.42;85.87;98984.00;10375767;28;97897;-86
2023/04/25 05:28:42;;;;;;;2.70;1.20;;;10.80;99.90;;;9.36;86.23;98981.09;10404566;28;96487;-88
2023/04/25 05:33:45;;;;;;;1.73;1.20;;;10.80;99.90;;;9.31;85.83;98982.66;10389361;28;97920;-85
2023/04/25 05:38:48;;;;;;;2.40;0.80;;;10.70;99.90;;;9.23;84.74;98980.13;10392261;28;96875;-86
2023/04/25 05:43:51;;;;;;;2.13;1.00;;;10.60;99.90;;;9.17;85.37;98981.69;10389375;28;96373;-88
2023/04/25 05:48:56;;;;;;;2.00;1.00;;;10.60;99.90;;;9.09;86.21;98977.34;10401269;27;96646;-86
2023/04/25 05:53:59;;;;;;;1.40;0.80;;;10.50;99.90;;;9.00;86.35;98988.25;10418134;28;97420;-85
2023/04/25 05:59:03;;;;;;;3.83;1.10;;;10.40;99.90;;;8.89;87.69;98991.41;10386809;28;96746;-88
2023/04/25 06:04:06;;;;;;;2.10;1.10;;;10.30;99.90;;;8.72;89.23;98990.78;10400833;27;97237;-89
2023/04/25 06:09:09;;;;;;;2.07;1.60;;;10.10;99.90;;;8.58;90.28;98997.75;10386673;28;96581;-89
2023/04/25 06:14:15;;;;;;;3.17;1.53;;;10.00;99.90;;;8.47;92.07;99006.16;10399528;28;96678;-85
2023/04/25 06:19:19;;;;;;;4.00;2.10;;;9.90;99.90;;;8.41;93.74;98994.47;10402074;28;96564;-85
2023/04/25 06:24:22;;;;;;;3.27;2.47;;;9.90;99.90;;;8.40;95.15;99005.25;10395998;27;98028;-86
2023/04/25 06:29:25;;;;;;;3.43;2.53;;;9.80;99.90;;;8.41;96.69;99022.78;10393110;27;96851;-87
2023/04/25 06:34:28;;;;;;;3.60;2.70;;;9.80;99.90;;;8.47;97.57;99022.84;10413520;27;98735;-89
2023/04/25 06:39:31;;;;;;;5.77;3.90;;;9.90;99.90;;;8.52;98.08;99030.25;10374865;28;98179;-87
2023/04/25 06:44:35;;;;;;;7.13;3.27;;;9.90;99.90;;;8.60;98.57;99035.44;10402156;28;96570;-89
2023/04/25 06:49:39;;;;;;;4.00;3.50;;;10.00;99.90;;;8.67;98.87;99027.59;10385075;28;96640;-85
2023/04/25 06:54:42;;;;;;;3.93;2.57;;;10.10;99.90;;;8.73;98.78;99034.78;10384669;28;96582;-87
2023/04/25 06:59:45;;;;;;;4.93;3.23;;;10.20;99.90;;;8.79;98.47;99039.34;10379755;28;97163;-86
2023/04/25 07:04:48;;;;;;;6.50;3.53;;;10.20;99.90;;;8.87;98.76;99035.78;10414211;28;98458;-88
2023/04/25 07:09:51;;;;;;;4.27;3.47;;;10.30;99.90;;;8.99;99.04;99035.13;10398575;28;96565;-90
2023/04/25 07:14:54;;;;;;;4.87;3.63;;;10.40;99.90;;;9.10;98.26;99041.75;10384985;28;96635;-90
2023/04/25 07:19:58;;;;;;;3.50;2.90;;;10.50;99.90;;;9.16;97.37;99040.19;10384100;28;96650;-88
2023/04/25 07:25:01;;;;;;;4.07;2.93;;;10.60;99.90;;;9.25;96.50;99044.41;10380702;28;96602;-90
2023/04/25 07:30:07;;;;;;;3.60;2.70;;;10.70;99.90;;;9.35;96.54;99044.88;10392100;27;98301;-90
2023/04/25 07:35:10;;;;;;;3.50;2.40;;;10.80;99.90;;;9.51;96.59;99043.84;10370638;28;96759;-89
2023/04/25 07:40:15;;;;;;;3.33;2.47;;;10.90;99.90;;;9.65;96.02;99050.91;10395896;28;96531;-89
2023/04/25 07:45:18;;;;;;;2.93;2.20;;;11.10;99.90;;;9.78;94.89;99050.22;10390468;28;96810;-88
2023/04/25 07:50:21;;;;;;;4.23;2.80;;;11.20;99.90;;;9.91;94.38;99045.84;10376987;28;96643;-89
2023/04/25 07:55:26;;;;;;;3.37;2.40;;;11.40;99.90;;;10.07;93.38;99050.03;10390565;28;97002;-88
2023/04/25 08:00:29;;;;;;;4.43;3.10;;;11.50;99.90;;;10.21;92.30;99048.31;10388325;28;97451;-87
2023/04/25 08:05:34;;;;;;;3.30;2.77;;;11.60;99.90;;;10.37;91.52;99040.06;10391161;28;97598;-87
2023/04/25 08:10:37;;;;;;;2.53;2.07;;;11.80;99.90;;;10.59;90.34;99047.97;10379923;28;98196;-86
2023/04/25 08:15:40;;;;;;;2.60;1.90;;;12.00;99.90;;;10.80;88.63;99049.72;10398428;28;97819;-87
2023/04/25 08:20:46;;;;;;;4.13;2.27;;;12.20;99.90;;;10.97;86.97;99051.00;10402249;28;97270;-88
2023/04/25 08:25:49;;;;;;;2.83;1.93;;;12.40;99.90;;;11.17;86.15;99051.09;10396823;28;97234;-86
2023/04/25 08:30:53;;;;;;;1.80;1.50;;;12.60;99.90;;;11.34;84.73;99048.91;10381338;28;98327;-90
2023/04/25 08:35:57;;;;;;;1.93;1.60;;;12.70;99.90;;;11.49;83.20;99055.69;10396946;28;96617;-90
2023/04/25 08:41:01;;;;;;;2.43;1.83;;;12.90;99.90;;;11.50;80.69;99057.31;10399583;28;96806;-87
2023/04/25 08:46:05;;;;;;;2.53;1.90;;;12.90;99.90;;;11.52;79.92;99063.28;10371294;28;97618;-87
2023/04/25 08:51:15;;;;;;;3.27;2.10;;;12.90;99.90;;;11.55;80.15;99067.38;10386459;28;96826;-87
2023/04/25 08:56:22;;;;;;;2.50;1.80;;;12.90;99.90;;;11.59;79.79;99062.47;10385298;27;96870;-88
2023/04/25 09:01:25;;;;;;;2.30;1.80;;;13.00;99.90;;;11.65;78.77;99078.44;10404290;28;97910;-88
2023/04/25 09:06:34;;;;;;;2.37;1.67;;;13.00;99.90;;;11.77;78.64;99079.50;10397203;28;96650;-86
2023/04/25 09:11:37;;;;;;;2.20;1.63;;;13.10;99.90;;;11.82;77.25;99078.09;10379829;27;97166;-89
2023/04/25 09:17:04;;;;;;;2.23;1.50;;;13.20;99.90;;;11.85;76.04;99085.66;10381463;28;98318;-90
2023/04/25 09:22:09;;;;;;;3.40;1.90;;;13.30;99.90;;;11.95;77.15;99083.44;10367350;28;96518;-86
2023/04/25 09:27:18;;;;;;;2.90;2.03;;;13.30;99.90;;;11.96;77.20;99077.09;10396834;28;96514;-87
2023/04/25 09:32:24;;;;;;;2.47;1.60;;;13.30;99.90;;;12.07;75.46;99073.00;10395785;28;96518;-88
2023/04/25 09:37:30;;;;;;;3.03;1.70;;;13.40;99.90;;;12.22;73.86;99082.41;10379342;28;96773;-88
2023/04/25 09:42:34;;;;;;;1.70;1.30;;;13.60;99.90;;;12.43;75.75;99078.72;10395293;27;97200;-87
2023/04/25 09:47:38;;;;;;;2.13;1.30;;;13.70;99.90;;;12.68;72.09;99065.53;10371752;28;97207;-87
2023/04/25 09:52:44;;;;;;;1.42;1.15;;;14.00;99.90;;;12.86;70.21;99073.69;10378474;27;97028;-89
2023/04/25 09:57:52;;;;;;;1.40;0.95;;;14.20;99.90;;;12.94;67.92;99072.63;10391084;28;96541;-87
2023/04/25 10:03:03;;;;;;;1.13;0.93;;;14.30;98.90;;;12.94;68.19;99069.16;10391859;28;98222;-85
2023/04/25 10:08:08;;;;;;;1.58;1.17;;;14.30;98.40;;;13.01;68.89;99076.09;10367713;27;96686;-88
2023/04/25 10:13:14;;;;;;;1.58;0.90;;;14.40;98.60;;;13.00;66.89;99070.97;10382707;28;97206;-86
2023/04/25 10:18:19;;;;;;;1.90;1.00;;;14.40;97.80;;;13.00;67.01;99085.13;10381267;28;96586;-84
2023/04/25 10:23:24;;;;;;;1.40;0.70;;;14.40;97.20;;;13.01;66.87;99083.25;10381059;28;96843;-83
2023/04/25 10:28:32;;;;;;;1.42;0.70;;;14.40;97.40;;;12.95;65.25;99057.44;10415144;28;97434;-84
2023/04/25 10:33:41;;;;;;;0.80;0.50;;;14.30;96.50;;;12.95;64.88;99071.59;10402617;28;96452;-86
2023/04/25 10:38:47;;;;;;;1.92;0.50;;;14.40;96.10;;;12.91;64.56;99070.41;10386722;28;96759;-81
2023/04/25 10:44:01;;;;;;;1.30;0.47;;;14.30;95.60;;;12.90;63.10;99073.28;10385867;28;97307;-85
2023/04/25 10:49:04;;;;;;;4.97;2.38;;;14.30;94.80;;;12.88;64.18;99076.13;10382299;27;97484;-86
2023/04/25 10:54:08;;;;;;;2.95;1.55;;;14.30;95.00;;;13.16;64.50;99067.03;10402122;28;96500;-82
2023/04/25 10:59:19;;;;;;;1.50;0.95;;;14.50;95.10;;;13.52;61.44;99071.78;10385442;28;96902;-84
2023/04/25 11:04:35;;;;;;;4.43;3.20;;;14.80;93.20;;;13.88;62.62;99063.13;10370310;28;96554;-84
2023/04/25 11:09:41;;;;;;;0.63;0.40;;;15.10;93.80;;;14.41;58.50;99082.22;10386011;28;96487;-84
2023/04/25 11:14:44;;;;;;;0.75;0.30;;;15.70;92.50;;;14.48;56.74;99079.50;10385936;28;96553;-84
2023/04/25 11:19:49;;;;;;;0.32;0.20;;;15.80;91.20;;;14.64;57.06;99086.16;10397866;28;98701;-82
2023/04/25 11:24:52;;;;;;;0.22;0.20;;;16.00;91.00;;;14.59;56.54;99091.34;10401399;28;97004;-83
2023/04/25 11:29:55;;;;;;;0.10;0.10;;;15.90;90.20;;;14.67;55.57;99085.69;10384978;28;96575;-83
2023/04/25 11:34:59;;;;;;;0.52;0.40;;;16.10;89.70;;;14.91;53.77;99089.34;10400050;28;96519;-83
2023/04/25 11:40:06;;;;;;;0.75;0.30;;;16.30;86.50;;;15.32;53.68;99088.66;10400763;28;96568;-82
2023/04/25 11:45:10;;;;;;;0.30;0.10;;;16.80;87.10;;;15.44;50.24;99094.88;10400129;28;96538;-87
2023/04/25 11:50:14;;;;;;;0.93;0.20;;;17.00;79.90;;;15.19;49.48;99095.00;10383962;28;96532;-83
2023/04/25 11:55:19;;;;;;;2.60;0.30;;;16.70;78.50;;;14.93;51.04;99108.66;10385929;28;96615;-85
2023/04/25 12:00:23;;;;;;;0.22;0.20;;;16.40;80.40;;;14.84;52.56;99105.47;10399823;28;98921;-86
2023/04/25 12:05:31;;;;;;;0.85;0.28;;;16.30;81.10;;;14.83;50.17;99106.53;10400297;28;96477;-85
2023/04/25 12:10:42;;;;;;;0.43;0.30;;;16.30;78.80;;;14.93;50.07;99111.34;10397920;28;96452;-86
2023/04/25 12:15:45;;;;;;;0.63;0.30;;;16.30;78.60;;;15.01;50.67;99108.38;10384348;28;96541;-87
2023/04/25 12:20:48;;;;;;;1.67;0.90;;;16.40;78.50;;;14.87;52.63;99115.75;10416210;28;96513;-88
2023/04/25 12:25:52;;;;;;;0.85;0.50;;;16.30;80.00;;;14.90;51.77;99114.47;10383485;28;96466;-85
2023/04/25 12:31:03;;;;;;;2.03;0.50;;;16.40;79.50;;;15.40;51.61;99103.59;10382147;28;96426;-85
2023/04/25 12:36:10;;;;;;;0.68;0.32;;;16.90;79.60;;;16.06;47.24;99097.31;10397633;28;98267;-87
2023/04/25 12:41:14;;;;;;;1.08;0.50;;;17.70;74.30;;;16.93;46.95;99085.94;10398765;28;96454;-84
2023/04/25 12:46:17;;;;;;;0.70;0.35;;;18.60;74.80;;;17.67;43.37;99085.00;10399408;28;96609;-82
2023/04/25 12:51:20;;;;;;;1.77;0.60;;;19.40;70.10;;;18.34;40.97;99078.06;10382967;28;96438;-87
2023/04/25 12:56:24;;;;;;;1.00;0.65;;;20.00;63.20;;;18.40;41.15;99064.44;10404804;28;96651;-85
2023/04/25 13:01:27;;;;;;;0.35;0.30;;;20.00;64.80;;;18.81;39.37;99059.69;10363382;28;97166;-85
2023/04/25 13:06:31;;;;;;;0.52;0.30;;;20.20;62.40;;;18.88;38.50;99068.38;10377376;28;96705;-86
2023/04/25 13:11:34;;;;;;;0.90;0.63;;;20.50;60.10;;;18.86;38.51;99057.06;10392922;27;97009;-85
2023/04/25 13:16:37;;;;;;;1.50;0.45;;;20.70;59.40;;;18.94;36.85;99050.41;10381263;28;96811;-80
2023/04/25 13:21:40;;;;;;;0.88;0.50;;;21.00;56.70;;;18.64;39.16;99045.41;10395103;28;96518;-85
2023/04/25 13:26:43;;;;;;;1.15;0.88;;;21.00;57.10;;;18.83;37.64;99038.72;10407389;27;96642;-84
2023/04/25 13:31:46;;;;;;;1.00;0.63;;;21.20;56.00;;;19.03;36.32;99042.72;10396547;28;96582;-85
2023/04/25 13:36:49;;;;;;;1.67;0.50;;;21.40;53.80;;;19.44;34.48;99039.44;10397642;28;96551;-88
2023/04/25 13:41:52;;;;;;;0.90;0.50;;;21.90;51.70;;;19.30;33.46;99051.66;10355677;28;97255;-88
2023/04/25 13:46:56;;;;;;;0.65;0.43;;;21.90;50.00;;;18.98;34.31;99062.31;10386775;28;97323;-86
2023/04/25 13:51:59;;;;;;;0.82;0.60;;;21.20;50.60;;;18.75;35.06;99043.72;10392821;28;96779;-85
2023/04/25 13:57:02;;;;;;;1.73;0.80;;;21.00;51.40;;;19.02;34.89;99030.34;10402126;28;96881;-85
2023/04/25 14:02:05;;;;;;;0.80;0.55;;;21.20;51.20;;;19.31;34.48;99034.44;10400503;27;96680;-87
2023/04/25 14:07:08;;;;;;;0.80;0.50;;;21.40;50.80;;;18.99;35.04;99034.31;10398903;28;96563;-86
2023/04/25 14:12:12;;;;;;;1.88;0.60;;;21.10;50.70;;;19.11;35.49;99028.81;10379843;28;96972;-87
2023/04/25 14:17:15;;;;;;;1.48;0.70;;;21.20;51.10;;;18.84;35.22;99026.09;10395453;28;96746;-86
2023/04/25 14:22:18;;;;;;;0.95;0.52;;;21.00;50.70;;;19.15;35.83;99044.22;10395245;28;96779;-87
2023/04/25 14:27:22;;;;;;;1.20;0.77;;;21.20;51.50;;;19.75;33.93;99045.16;10419062;28;96599;-85
2023/04/25 14:32:25;;;;;;;1.48;0.50;;;21.80;50.80;;;19.97;33.92;99042.34;10380702;28;96517;-87
2023/04/25 14:37:28;;;;;;;1.13;0.65;;;21.90;50.00;;;19.82;33.29;99029.56;10408609;27;97070;-86
2023/04/25 14:42:32;;;;;;;1.05;0.52;;;21.80;49.10;;;19.74;33.12;99030.03;10412561;28;97339;-87
2023/04/25 14:47:39;;;;;;;0.90;0.50;;;21.70;49.00;;;19.94;31.97;99048.28;10375404;28;96682;-88
2023/04/25 14:52:42;;;;;;;1.00;0.50;;;21.90;47.60;;;19.65;32.44;99037.75;10398312;28;96810;-87
2023/04/25 14:57:45;;;;;;;0.95;0.55;;;21.70;48.00;;;19.33;32.86;99048.47;10384731;28;96431;-90
2023/04/25 15:02:49;;;;;;;0.88;0.70;;;21.40;48.10;;;18.68;32.74;99031.25;10396052;28;97363;-84
2023/04/25 15:07:52;;;;;;;1.10;0.63;;;20.70;47.60;;;18.16;32.82;99060.31;10385125;28;97196;-89
2023/04/25 15:12:55;;;;;;;1.10;0.50;;;20.00;47.50;;;17.37;33.84;99061.06;10395786;28;96533;-86
2023/04/25 15:17:59;;;;;;;1.50;0.55;;;19.10;48.70;;;16.66;35.63;99048.03;10400696;28;96842;-85
2023/04/25 15:23:04;;;;;;;1.23;0.80;;;18.30;50.20;;;16.19;37.09;99056.06;10404204;28;96570;-84
2023/04/25 15:28:07;;;;;;;1.52;0.98;;;17.70;51.80;;;15.80;38.62;99063.72;10401404;28;96431;-88
2023/04/25 15:33:10;;;;;;;2.28;1.10;;;17.30;53.30;;;15.77;38.67;99073.03;10392663;28;96606;-86
2023/04/25 15:38:13;;;;;;;3.80;2.08;;;17.20;53.70;;;15.66;39.33;99067.66;10362477;28;97235;-87
2023/04/25 15:43:16;;;;;;;4.28;1.60;;;17.10;54.00;;;15.48;39.29;99071.97;10396292;28;96524;-88
2023/04/25 15:48:20;;;;;;;2.40;0.90;;;16.90;54.50;;;15.25;39.95;99064.66;10392076;28;97477;-87
2023/04/25 15:53:23;;;;;;;1.40;0.90;;;16.70;54.70;;;15.27;43.93;99061.75;10391627;28;96635;-90
2023/04/25 15:58:26;;;;;;;6.00;1.38;;;16.80;57.40;;;15.10;46.89;99064.22;10394519;28;98208;-89
2023/04/25 16:03:30;;;;;;;1.83;1.40;;;16.80;61.70;;;14.81;48.01;99065.78;10398792;28;97112;-86
2023/04/25 16:08:37;;;;;;;2.75;1.60;;;16.50;62.10;;;14.85;49.47;99068.84;10372941;28;96642;-88
2023/04/25 16:13:40;;;;;;;5.32;2.30;;;16.50;64.40;;;14.80;49.97;99071.38;10365187;28;98532;-88
2023/04/25 16:18:43;;;;;;;5.20;2.20;;;16.50;64.50;;;14.55;50.41;99076.78;10381749;28;96664;-88
2023/04/25 16:23:46;;;;;;;4.15;2.08;;;16.30;65.40;;;14.00;52.24;99084.63;10396944;28;98063;-87
2023/04/25 16:28:51;;;;;;;3.97;2.35;;;15.70;66.80;;;13.46;54.26;99088.66;10416276;28;98196;-88
2023/04/25 16:33:54;;;;;;;3.63;2.30;;;15.10;69.10;;;13.13;55.44;99093.09;10397359;28;96716;-86
2023/04/25 16:38:59;;;;;;;5.45;3.38;;;14.70;70.20;;;12.90;56.69;99089.28;10366015;28;96836;-88
2023/04/25 16:44:05;;;;;;;4.28;2.78;;;14.40;72.40;;;12.74;57.83;99093.22;10394260;28;99420;-88
2023/04/25 16:49:08;;;;;;;4.37;2.27;;;14.10;73.60;;;12.62;58.64;99092.22;10381563;28;98293;-88
2023/04/25 16:54:11;;;;;;;6.03;3.37;;;14.00;75.00;;;12.56;59.57;99091.19;10386120;28;96521;-86
2023/04/25 16:59:14;;;;;;;6.10;3.67;;;13.90;75.60;;;12.50;59.75;99086.69;10411393;27;97726;-91
2023/04/25 17:04:17;;;;;;;4.17;2.43;;;13.90;76.70;;;12.48;59.67;99081.56;10374333;28;96605;-91
2023/04/25 17:09:20;;;;;;;4.50;1.73;;;13.80;77.00;;;12.45;58.42;99103.28;10393734;28;97005;-89
2023/04/25 17:14:24;;;;;;;2.07;1.40;;;13.80;76.20;;;12.36;57.42;99115.19;10398049;28;96439;-88
2023/04/25 17:19:27;;;;;;;2.70;1.77;;;13.70;76.10;;;12.22;57.45;99116.19;10401625;27;96608;-89
2023/04/25 17:24:30;;;;;;;2.67;1.93;;;13.60;75.60;;;12.08;57.67;99131.38;10406242;28;96514;-90
2023/04/25 17:29:34;;;;;;;3.03;1.93;;;13.40;75.70;;;11.90;57.52;99137.28;10421926;28;96526;-89
2023/04/25 17:34:38;;;;;;;2.87;1.70;;;13.30;75.80;;;11.74;58.03;99145.59;10420914;28;96497;-88
2023/04/25 17:39:45;;;;;;;3.20;1.90;;;13.10;75.90;;;11.60;58.42;99146.59;10404614;28;96571;-88
2023/04/25 17:44:49;;;;;;;3.93;1.93;;;13.00;76.20;;;11.42;58.40;99149.81;10402000;28;96885;-88
2023/04/25 17:49:55;;;;;;;3.40;2.23;;;12.80;76.60;;;11.20;58.70;99162.38;10387864;28;96541;-88
2023/04/25 17:54:58;;;;;;;9.90;3.67;;;12.70;76.80;;;11.02;59.16;99165.56;10404205;28;96513;-89
2023/04/25 18:00:02;;;;;;;12.27;4.00;;;12.50;77.30;;;10.88;59.32;99159.34;10372789;28;98690;-88
2023/04/25 18:05:09;;;;;;;4.63;2.50;;;12.30;77.40;;;10.80;59.63;99178.09;10393826;28;97126;-89
2023/04/25 18:10:13;;;;;;;3.10;2.00;;;12.20;77.90;;;10.66;60.02;99181.66;10410296;28;97415;-90
2023/04/25 18:15:17;;;;;;;2.97;2.57;;;12.10;78.40;;;10.57;60.23;99183.66;10376990;27;96570;-90
2023/04/25 18:20:21;;;;;;;2.60;1.80;;;12.00;78.80;;;10.49;60.95;99198.91;10387136;28;96477;-89
2023/04/25 18:25:24;;;;;;;3.33;2.30;;;11.90;79.80;;;10.45;62.62;99206.44;10383129;28;96777;-92
2023/04/25 18:30:30;;;;;;;3.20;1.63;;;11.80;81.50;;;10.44;63.58;99216.25;10407803;28;96544;-90
2023/04/25 18:35:33;;;;;;;5.37;2.70;;;11.80;82.90;;;10.41;63.92;99213.13;10365178;28;97256;-89
2023/04/25 18:40:41;;;;;;;2.97;1.90;;;11.80;83.30;;;10.34;64.56;99218.38;10368884;27;97845;-89
2023/04/25 18:46:01;;;;;;;5.30;3.70;;;11.80;84.00;;;10.27;64.73;99228.13;10397757;27;97955;-88
2023/04/25 18:51:04;;;;;;;3.83;2.80;;;11.70;84.50;;;10.22;65.31;99235.81;10377804;28;96831;-87
2023/04/25 18:56:08;;;;;;;3.53;2.27;;;11.60;85.10;;;10.12;65.96;99237.94;10398445;27;96841;-91
2023/04/25 19:01:11;;;;;;;3.53;2.57;;;11.50;86.30;;;10.01;66.34;99231.28;10382791;28;97807;-87
2023/04/25 19:06:15;;;;;;;3.20;2.00;;;11.40;86.80;;;9.93;66.73;99234.88;10402415;28;97529;-89
2023/04/25 19:11:20;;;;;;;4.00;2.13;;;11.40;87.30;;;9.85;67.33;99242.97;10387601;27;96843;-90
2023/04/25 19:16:24;;;;;;;3.23;1.87;;;11.30;88.20;;;9.77;67.98;99247.53;10397255;27;96684;-90
2023/04/25 19:21:28;;;;;;;3.80;1.90;;;11.20;89.30;;;9.64;68.50;99240.25;10415503;27;99114;-87
2023/04/25 19:26:31;;;;;;;4.23;2.37;;;11.10;89.60;;;9.58;69.08;99241.00;10379894;28;98270;-87
2023/04/25 19:31:36;;;;;;;5.57;2.63;;;11.00;90.30;;;9.54;69.26;99240.56;10393358;27;97369;-87
2023/04/25 19:36:41;;;;;;;4.83;2.33;;;11.00;90.60;;;9.61;69.06;99238.81;10394495;28;98113;-82
2023/04/25 19:41:44;;;;;;;5.80;2.73;;;11.00;90.90;;;9.72;68.79;99234.84;10379011;27;98230;-80
2023/04/25 19:46:48;;;;;;;4.47;2.47;;;11.10;91.10;;;9.79;68.09;99243.72;10410658;27;96998;-82
2023/04/25 19:51:51;;;;;;;3.10;1.87;;;11.20;90.90;;;9.83;67.89;99244.97;10395271;28;96661;-82
2023/04/25 19:56:55;;;;;;;3.03;1.90;;;11.20;90.90;;;9.82;67.68;99245.16;10394094;27;96628;-82
2023/04/25 20:01:59;;;;;;;4.37;2.27;;;11.20;90.90;;;9.81;67.62;99230.25;10388832;27;96675;-82
2023/04/25 20:07:03;;;;;;;2.93;2.07;;;11.20;90.80;;;9.67;67.83;99239.88;10397970;28;96816;-81
2023/04/25 20:12:06;;;;;;;2.17;1.60;;;11.10;90.90;;;9.49;68.58;99234.97;10367863;28;97869;-81
2023/04/25 20:17:10;;;;;;;3.83;1.70;;;11.00;91.30;;;9.33;69.66;99249.22;10394244;28;96828;-84
2023/04/25 20:22:13;;;;;;;2.77;1.60;;;10.80;92.00;;;9.25;70.10;99251.97;10380760;28;96466;-83
2023/04/25 20:27:16;;;;;;;4.43;1.90;;;10.70;92.60;;;9.18;70.77;99232.53;10378589;28;97282;-84
2023/04/25 20:32:19;;;;;;;4.53;1.97;;;10.60;93.00;;;9.07;71.56;99235.63;10408908;28;97589;-84
2023/04/25 20:37:22;;;;;;;4.40;2.70;;;10.50;93.60;;;8.96;72.08;99250.13;10375877;28;96692;-85
2023/04/25 20:42:25;;;;;;;3.70;2.20;;;10.40;93.80;;;8.89;72.67;99256.34;10397092;28;96636;-83
2023/04/25 20:47:28;;;;;;;10.23;5.07;;;10.30;94.20;;;8.80;72.80;99264.34;10380148;28;96531;-83
2023/04/25 20:52:32;;;;;;;5.97;3.93;;;10.20;94.60;;;8.74;72.90;99269.53;10392764;27;96728;-84
2023/04/25 20:57:36;;;;;;;5.63;3.50;;;10.20;94.90;;;8.72;72.72;99277.66;10395789;28;96522;-82
2023/04/25 21:02:39;;;;;;;5.30;2.70;;;10.10;95.10;;;8.77;72.41;99277.94;10408935;28;96538;-83
2023/04/25 21:07:42;;;;;;;5.17;2.50;;;10.20;95.50;;;8.90;71.84;99287.94;10396846;28;96671;-83
2023/04/25 21:12:48;;;;;;;5.70;2.70;;;10.30;95.10;;;9.04;71.07;99292.44;10382732;28;96507;-84